Time;durP1;ratioP1;P1;durP2;ratioP2;P2;SDS_P1;SDS_P2;PMS_P1;PMS_P2;Temp;Humidity;BMP_temperature;BMP_pressure;BME280_temperature;BME280_humidity;BME280_pressure;Samples;Min_cycle;Max_cycle;Signal;HPM_P1;HPM_P2
2023/10/09 00:00:36;;;;;;;;;;;;;;;18.95;36.27;101235.81;5133055;27;19924;-64
2023/10/09 00:03:01;;;;;;;;;;;;;;;18.95;36.50;101235.81;5132930;28;19943;-64
2023/10/09 00:05:39;;;;;;;;;;;;;;;18.94;36.52;101253.03;5133091;28;19924;-64
2023/10/09 00:08:11;;;;;;;;;;;;;;;18.93;36.48;101237.78;5132955;27;20354;-65
2023/10/09 00:10:49;;;;;;;;;;;;;;;18.92;36.32;101233.38;5132885;28;19931;-64
2023/10/09 00:13:18;;;;;;;;;;;;;;;18.90;36.48;101219.09;5133104;28;19923;-64
2023/10/09 00:15:52;;;;;;;;;;;;;;;18.88;36.46;101222.78;5133078;28;20295;-63
2023/10/09 00:18:28;;;;;;;;;;;;;;;18.87;36.37;101229.16;5133013;28;20317;-64
2023/10/09 00:21:11;;;;;;;;;;;;;;;18.86;36.49;101240.97;5132792;27;19923;-65
2023/10/09 00:23:40;;;;;;;;;;;;;;;18.86;36.29;101232.00;5133046;27;20350;-63
2023/10/09 00:26:11;;;;;;;;;;;;;;;18.84;36.14;101240.25;5133161;28;19923;-63
2023/10/09 00:28:42;;;;;;;;;;;;;;;18.84;36.06;101229.44;5132806;28;20384;-64
2023/10/09 00:31:14;;;;;;;;;;;;;;;18.83;36.41;101221.44;5132659;28;19924;-64
2023/10/09 00:33:43;;;;;;;;;;;;;;;18.81;36.12;101212.56;5132886;28;20364;-64
2023/10/09 00:36:18;;;;;;;;;;;;;;;18.79;36.47;101210.00;5132810;27;19931;-63
2023/10/09 00:38:50;;;;;;;;;;;;;;;18.80;36.49;101221.66;5132730;27;19923;-63
2023/10/09 00:41:24;;;;;;;;;;;;;;;18.78;36.27;101216.38;5135575;27;19927;-65
2023/10/09 00:43:53;;;;;;;;;;;;;;;18.77;36.17;101209.25;5136363;27;19927;-65
2023/10/09 00:46:25;;;;;;;;;;;;;;;18.76;36.33;101218.34;5136771;27;19923;-64
2023/10/09 00:48:55;;;;;;;;;;;;;;;18.75;36.37;101208.53;5136666;27;20014;-64
2023/10/09 00:51:24;;;;;;;;;;;;;;;18.75;36.06;101211.22;5136306;27;19971;-63
2023/10/09 00:53:54;;;;;;;;;;;;;;;18.74;36.35;101217.63;5136324;27;20406;-63
2023/10/09 00:56:38;;;;;;;;;;;;;;;18.74;35.99;101224.88;5136340;27;19923;-63
2023/10/09 00:59:14;;;;;;;;;;;;;;;18.72;36.18;101203.38;5136299;27;19927;-64
2023/10/09 01:01:45;;;;;;;;;;;;;;;18.72;36.11;101207.91;5136276;27;19976;-63
2023/10/09 01:04:15;;;;;;;;;;;;;;;18.71;36.30;101217.84;5136356;27;19930;-63
2023/10/09 01:06:44;;;;;;;;;;;;;;;18.70;36.28;101210.72;5136038;27;19945;-64
2023/10/09 01:09:13;;;;;;;;;;;;;;;18.69;36.33;101206.31;5136265;27;19924;-64
2023/10/09 01:14:25;;;;;;;;;;;;;;;18.68;36.26;101201.88;5135600;27;20004;-64
2023/10/09 01:16:54;;;;;;;;;;;;;;;18.67;36.34;101216.38;5135809;27;19924;-64
2023/10/09 01:19:24;;;;;;;;;;;;;;;18.66;36.35;101209.25;5135762;27;20334;-63
2023/10/09 01:21:53;;;;;;;;;;;;;;;18.66;36.31;101214.66;5135871;27;19930;-63
2023/10/09 01:24:26;;;;;;;;;;;;;;;18.66;36.30;101216.50;5135941;27;19976;-63
2023/10/09 01:26:57;;;;;;;;;;;;;;;18.64;36.29;101221.16;5135526;27;20391;-63
2023/10/09 01:29:27;;;;;;;;;;;;;;;18.64;36.26;101219.31;5135677;27;19969;-64
2023/10/09 01:31:56;;;;;;;;;;;;;;;18.63;35.84;101214.88;5135524;27;20000;-64
2023/10/09 01:34:34;;;;;;;;;;;;;;;18.62;35.91;101205.03;5135778;27;19931;-63
2023/10/09 01:37:05;;;;;;;;;;;;;;;18.62;36.32;101218.53;5135387;27;19923;-63
2023/10/09 01:39:40;;;;;;;;;;;;;;;18.60;36.12;101213.25;5135980;27;19946;-63
2023/10/09 01:42:09;;;;;;;;;;;;;;;18.59;36.21;101216.09;5134254;27;19938;-63
2023/10/09 01:44:43;;;;;;;;;;;;;;;18.60;36.28;101212.41;5135349;27;19956;-64
2023/10/09 01:47:15;;;;;;;;;;;;;;;18.58;36.13;101206.25;5135416;27;20022;-64
2023/10/09 01:49:49;;;;;;;;;;;;;;;18.59;36.05;101218.78;5135342;27;19923;-64
2023/10/09 01:52:17;;;;;;;;;;;;;;;18.58;36.12;101217.06;5135028;27;19930;-64
2023/10/09 01:54:48;;;;;;;;;;;;;;;18.57;36.00;101218.91;5135175;27;19923;-64
2023/10/09 01:57:22;;;;;;;;;;;;;;;18.57;36.03;101228.88;5135289;27;19923;-64
2023/10/09 01:59:53;;;;;;;;;;;;;;;18.56;36.18;101230.72;5134043;27;19924;-64
2023/10/09 02:02:33;;;;;;;;;;;;;;;18.56;35.99;101235.25;5135130;27;19931;-63
2023/10/09 02:05:23;;;;;;;;;;;;;;;18.55;35.83;101238.94;5134965;27;20367;-64
2023/10/09 02:07:52;;;;;;;;;;;;;;;18.53;35.90;101235.50;5134088;27;19977;-64
2023/10/09 02:10:32;;;;;;;;;;;;;;;18.53;35.94;101235.50;5135052;27;20018;-64
2023/10/09 02:13:06;;;;;;;;;;;;;;;18.53;35.68;101230.09;5134867;27;19923;-63
2023/10/09 02:15:45;;;;;;;;;;;;;;;18.50;36.06;101220.38;5135002;27;20385;-64
2023/10/09 02:18:18;;;;;;;;;;;;;;;18.50;35.85;101227.59;5134654;27;20295;-64
2023/10/09 02:20:48;;;;;;;;;;;;;;;18.50;36.00;101235.72;5134752;27;19923;-63
2023/10/09 02:23:17;;;;;;;;;;;;;;;18.48;36.00;101237.69;5134641;27;19976;-63
2023/10/09 02:25:53;;;;;;;;;;;;;;;18.48;35.89;101226.88;5134557;27;19927;-64
2023/10/09 02:28:21;;;;;;;;;;;;;;;18.47;35.72;101222.47;5134393;27;19924;-64
2023/10/09 02:30:49;;;;;;;;;;;;;;;18.46;35.94;101213.50;5134521;27;19923;-64
2023/10/09 02:33:27;;;;;;;;;;;;;;;18.45;35.86;101194.72;5134530;27;19965;-64
2023/10/09 02:35:55;;;;;;;;;;;;;;;18.45;35.84;101189.31;5134084;27;20394;-64
2023/10/09 02:38:24;;;;;;;;;;;;;;;18.45;35.93;101208.22;5134616;27;19923;-64
2023/10/09 02:41:20;;;;;;;;;;;;;;;18.45;35.92;101208.22;5134134;27;19923;-64
2023/10/09 02:43:50;;;;;;;;;;;;;;;18.43;35.67;101185.84;5134368;27;19931;-64
2023/10/09 02:46:20;;;;;;;;;;;;;;;18.43;35.82;101191.25;5134031;27;19974;-64
2023/10/09 02:48:50;;;;;;;;;;;;;;;18.41;35.82;101188.66;5134017;27;19944;-63
2023/10/09 02:54:18;;;;;;;;;;;;;;;18.40;35.46;101180.69;5127272;27;20068;-64
2023/10/09 02:56:56;;;;;;;;;;;;;;;18.38;35.68;101167.31;5134024;27;19946;-64
2023/10/09 02:59:24;;;;;;;;;;;;;;;18.38;35.73;101172.72;5133842;27;19924;-64
2023/10/09 03:01:53;;;;;;;;;;;;;;;18.37;35.77;101165.59;5133535;27;19923;-63
2023/10/09 03:04:23;;;;;;;;;;;;;;;18.37;35.52;101170.13;5133588;27;19923;-63
2023/10/09 03:06:57;;;;;;;;;;;;;;;18.35;35.82;101162.16;5133758;27;19958;-63
2023/10/09 03:09:27;;;;;;;;;;;;;;;18.34;35.47;101151.47;5133633;27;19987;-63
2023/10/09 03:12:02;;;;;;;;;;;;;;;18.34;35.56;101148.78;5133478;27;20018;-63
2023/10/09 03:14:31;;;;;;;;;;;;;;;18.31;35.41;101158.81;5132182;27;19924;-63
2023/10/09 03:16:59;;;;;;;;;;;;;;;18.33;35.48;101174.03;5133368;27;19971;-64
2023/10/09 03:19:28;;;;;;;;;;;;;;;18.31;35.51;101171.47;5133582;27;19923;-64
2023/10/09 03:21:57;;;;;;;;;;;;;;;18.30;35.61;101165.19;5133404;27;19931;-64
2023/10/09 03:24:26;;;;;;;;;;;;;;;18.30;35.57;101156.25;5133579;27;19930;-64
2023/10/09 03:26:56;;;;;;;;;;;;;;;18.28;35.60;101167.16;5133207;27;19931;-64
2023/10/09 03:29:27;;;;;;;;;;;;;;;18.27;35.67;101162.75;5133434;27;20375;-63
2023/10/09 03:31:56;;;;;;;;;;;;;;;18.27;35.56;101164.59;5133225;27;20451;-64
2023/10/09 03:34:25;;;;;;;;;;;;;;;18.26;35.59;101163.72;5133337;27;20398;-64
2023/10/09 03:37:03;;;;;;;;;;;;;;;18.25;35.59;101167.41;5133458;27;19930;-64
2023/10/09 03:39:38;;;;;;;;;;;;;;;18.24;35.50;101187.31;5133115;27;20370;-64
2023/10/09 03:42:11;;;;;;;;;;;;;;;18.23;35.65;101190.94;5133426;27;19974;-64
2023/10/09 03:44:43;;;;;;;;;;;;;;;18.21;35.47;101182.13;5133369;27;19967;-64
2023/10/09 03:47:12;;;;;;;;;;;;;;;18.22;35.47;101161.38;5133169;28;19930;-63
2023/10/09 03:49:43;;;;;;;;;;;;;;;18.21;35.48;101155.13;5133156;28;19934;-64
2023/10/09 03:52:11;;;;;;;;;;;;;;;18.19;35.35;101151.69;5132837;28;19941;-64
2023/10/09 03:54:39;;;;;;;;;;;;;;;18.19;35.55;101156.22;5133348;28;19927;-64
2023/10/09 03:57:07;;;;;;;;;;;;;;;18.17;35.59;101164.44;5133226;28;19923;-64
2023/10/09 03:59:38;;;;;;;;;;;;;;;18.16;35.46;101151.94;5133395;28;19924;-64
2023/10/09 04:02:08;;;;;;;;;;;;;;;18.16;35.39;101162.72;5132950;28;19969;-64
2023/10/09 04:04:36;;;;;;;;;;;;;;;18.15;35.93;101160.16;5132865;28;20423;-64
2023/10/09 04:07:06;;;;;;;;;;;;;;;18.14;35.57;101144.91;5133098;28;19931;-63
2023/10/09 04:09:39;;;;;;;;;;;;;;;18.13;35.42;101148.59;5131448;28;19931;-64
2023/10/09 04:12:20;;;;;;;;;;;;;;;18.12;35.71;101158.53;5132617;28;20008;-64
2023/10/09 04:14:54;;;;;;;;;;;;;;;18.11;35.67;101158.66;5135170;27;19930;-64
2023/10/09 04:17:39;;;;;;;;;;;;;;;18.08;35.38;101151.66;5136719;27;20372;-64
2023/10/09 04:23:08;;;;;;;;;;;;;;;18.07;35.46;101152.63;5136516;27;20396;-63
2023/10/09 04:25:42;;;;;;;;;;;;;;;18.07;35.61;101151.78;5136797;27;20021;-63
2023/10/09 04:28:18;;;;;;;;;;;;;;;18.06;35.44;101144.66;5136970;27;19928;-64
2023/10/09 04:30:53;;;;;;;;;;;;;;;18.03;35.45;101133.09;5136674;27;19930;-64
2023/10/09 04:33:40;;;;;;;;;;;;;;;18.02;35.40;101128.69;5136597;27;19945;-64
2023/10/09 04:36:28;;;;;;;;;;;;;;;18.02;35.51;101149.41;5136405;27;19973;-64
2023/10/09 04:39:15;;;;;;;;;;;;;;;18.00;35.26;101143.28;5117706;27;20376;-63
2023/10/09 04:41:53;;;;;;;;;;;;;;;17.99;35.43;101137.03;5115676;28;20336;-64
2023/10/09 04:44:29;;;;;;;;;;;;;;;17.98;35.29;101118.25;5115600;28;19924;-63
2023/10/09 04:50:01;;;;;;;;;;;;;;;17.95;34.86;101127.47;5115308;27;19966;-63
2023/10/09 04:55:18;;;;;;;;;;;;;;;17.93;35.19;101134.78;5115088;28;19924;-63
2023/10/09 04:58:00;;;;;;;;;;;;;;;17.92;35.05;101121.41;5115693;28;19969;-63
2023/10/09 05:01:02;;;;;;;;;;;;;;;17.92;35.17;101110.63;5115265;28;19924;-63
2023/10/09 05:03:42;;;;;;;;;;;;;;;17.91;35.12;101112.47;5115400;28;19924;-63
2023/10/09 05:06:42;;;;;;;;;;;;;;;17.89;35.39;101109.03;5115462;28;19927;-63
2023/10/09 05:09:14;;;;;;;;;;;;;;;17.88;35.27;101103.75;5115207;28;20368;-64
2023/10/09 05:12:09;;;;;;;;;;;;;;;17.87;35.08;101100.19;5115292;28;19930;-64
2023/10/09 05:14:45;;;;;;;;;;;;;;;17.87;35.32;101099.34;5115346;28;19976;-63
2023/10/09 05:17:15;;;;;;;;;;;;;;;17.86;35.20;101119.22;5115182;28;20002;-64
2023/10/09 05:19:54;;;;;;;;;;;;;;;17.86;35.25;101117.38;5114608;28;19924;-64
2023/10/09 05:22:29;;;;;;;;;;;;;;;17.85;35.00;101112.06;5114881;28;19924;-64
2023/10/09 05:25:00;;;;;;;;;;;;;;;17.85;35.13;101109.38;5114962;28;20324;-64
2023/10/09 05:27:50;;;;;;;;;;;;;;;17.83;35.09;101090.59;5113912;28;20398;-64
2023/10/09 05:30:33;;;;;;;;;;;;;;;17.83;35.07;101089.75;5114540;28;19924;-63
2023/10/09 05:36:04;;;;;;;;;;;;;;;17.82;35.13;101101.53;5093678;28;19924;-64
2023/10/09 05:38:46;;;;;;;;;;;;;;;17.81;35.33;101114.16;5114759;27;19977;-64
2023/10/09 05:41:47;;;;;;;;;;;;;;;17.81;35.59;101107.91;5116596;27;19946;-64
2023/10/09 05:50:01;;;;;;;;;;;;;;;17.80;35.40;101143.97;5114338;28;19924;-65
2023/10/09 06:03:55;;;;;;;;;;;;;;;17.79;35.46;101109.84;5107520;28;19975;-65
2023/10/09 06:06:42;;;;;;;;;;;;;;;17.78;35.15;101108.16;5114387;27;20288;-65
2023/10/09 06:09:28;;;;;;;;;;;;;;;17.79;35.32;101109.84;5114133;28;20484;-62
2023/10/09 06:15:04;;;;;;;;;;;;;;;17.78;34.88;101082.03;5119134;27;20441;-65
2023/10/09 06:17:43;;;;;;;;;;;;;;;17.78;35.07;101081.16;5134581;27;19924;-65
2023/10/09 06:23:04;;;;;;;;;;;;;;;17.76;35.05;101062.41;5134645;27;19931;-66
2023/10/09 06:25:39;;;;;;;;;;;;;;;17.75;34.77;101057.94;5131743;27;20403;-64
2023/10/09 06:28:09;;;;;;;;;;;;;;;17.76;34.88;101061.50;5113801;28;20364;-64
2023/10/09 06:30:44;;;;;;;;;;;;;;;17.76;34.80;101066.91;5113676;28;19975;-65
2023/10/09 06:33:29;;;;;;;;;;;;;;;17.74;34.99;101075.97;5113556;28;20014;-65
2023/10/09 06:36:08;;;;;;;;;;;;;;;17.74;34.80;101070.59;5113384;28;20292;-66
2023/10/09 06:38:52;;;;;;;;;;;;;;;17.73;34.76;101079.66;5112446;28;20380;-64
2023/10/09 06:44:05;;;;;;;;;;;;;;;17.73;34.74;101085.06;5113608;27;19923;-66
2023/10/09 06:46:44;;;;;;;;;;;;;;;17.72;34.74;101077.94;5112323;28;19976;-64
2023/10/09 06:49:33;;;;;;;;;;;;;;;17.72;34.56;101066.28;5111924;28;19927;-64
2023/10/09 06:52:15;;;;;;;;;;;;;;;17.72;34.79;101072.53;5112676;28;19930;-65
2023/10/09 06:54:49;;;;;;;;;;;;;;;17.72;34.82;101067.16;5112449;28;20388;-65
2023/10/09 06:57:43;;;;;;;;;;;;;;;17.72;34.85;101060.91;5112253;28;19924;-65
2023/10/09 07:02:57;;;;;;;;;;;;;;;17.72;34.61;101047.41;5087079;28;19984;-65
2023/10/09 07:05:31;;;;;;;;;;;;;;;17.73;34.76;101046.41;5112894;28;19924;-65
2023/10/09 07:08:28;;;;;;;;;;;;;;;17.72;34.71;101044.69;5112939;28;19923;-65
2023/10/09 07:11:02;;;;;;;;;;;;;;;17.72;34.86;101047.41;5112711;28;19924;-65
2023/10/09 07:13:36;;;;;;;;;;;;;;;17.70;34.58;101047.53;5112863;28;19923;-64
2023/10/09 07:16:23;;;;;;;;;;;;;;;17.70;34.41;101050.22;5112833;28;19931;-66
2023/10/09 07:18:54;;;;;;;;;;;;;;;17.69;34.57;101043.13;5112529;28;19924;-66
2023/10/09 07:21:28;;;;;;;;;;;;;;;17.69;34.65;101029.63;5112762;28;19967;-65
2023/10/09 07:24:04;;;;;;;;;;;;;;;17.69;34.16;101034.13;5112776;28;19928;-66
2023/10/09 07:26:47;;;;;;;;;;;;;;;17.68;34.46;101025.19;5112596;28;19923;-65
2023/10/09 07:29:21;;;;;;;;;;;;;;;17.69;34.16;100997.25;5112337;28;19923;-66
2023/10/09 07:31:58;;;;;;;;;;;;;;;17.68;34.22;100973.91;5112499;28;20061;-65
2023/10/09 07:34:40;;;;;;;;;;;;;;;17.68;34.13;100962.25;5112258;28;20321;-66
2023/10/09 07:37:09;;;;;;;;;;;;;;;17.69;33.91;100964.88;5112334;28;19931;-66
2023/10/09 07:39:37;;;;;;;;;;;;;;;17.68;33.83;100955.03;5112533;28;19950;-66
2023/10/09 07:42:26;;;;;;;;;;;;;;;17.68;33.68;100946.09;5112294;28;20014;-65
2023/10/09 07:44:57;;;;;;;;;;;;;;;17.67;33.74;100939.81;5112346;28;19927;-66
2023/10/09 07:50:21;;;;;;;;;;;;;;;17.68;33.86;100937.97;5111952;28;19970;-65
2023/10/09 07:52:49;;;;;;;;;;;;;;;17.69;33.70;100953.19;5112613;28;20004;-64
2023/10/09 07:55:29;;;;;;;;;;;;;;;17.69;34.13;100955.88;5112441;28;19959;-67
2023/10/09 07:57:57;;;;;;;;;;;;;;;17.70;34.16;100957.63;5112200;28;20364;-66
2023/10/09 08:01:05;;;;;;;;;;;;;;;17.68;34.22;100949.63;5112091;28;19924;-64
2023/10/09 08:03:32;;;;;;;;;;;;;;;17.69;34.14;100945.09;5112083;28;20003;-65
2023/10/09 08:06:37;;;;;;;;;;;;;;;17.69;34.06;100955.88;5112369;28;20352;-64
2023/10/09 08:14:45;;;;;;;;;;;;;;;17.67;34.17;100934.44;5111950;28;19930;-64
2023/10/09 08:17:15;;;;;;;;;;;;;;;17.68;34.54;100936.16;5111871;28;19985;-65
2023/10/09 08:19:54;;;;;;;;;;;;;;;17.69;34.70;100937.88;5111879;28;19962;-65
2023/10/09 08:22:42;;;;;;;;;;;;;;;17.69;34.69;100915.41;5112004;28;19924;-65
2023/10/09 08:25:27;;;;;;;;;;;;;;;17.69;34.54;100926.22;5112082;28;19923;-65
2023/10/09 08:27:57;;;;;;;;;;;;;;;17.69;34.68;100910.91;5111765;28;19928;-65
2023/10/09 08:30:50;;;;;;;;;;;;;;;17.70;34.34;100914.47;5112354;28;19974;-65
2023/10/09 08:36:36;;;;;;;;;;;;;;;17.72;34.96;100920.59;5112039;28;19931;-65
2023/10/09 08:39:16;;;;;;;;;;;;;;;17.73;34.73;100906.97;5111929;28;19931;-65
2023/10/09 08:41:45;;;;;;;;;;;;;;;17.73;34.30;100908.81;5111869;28;20296;-65
2023/10/09 08:44:14;;;;;;;;;;;;;;;17.74;34.34;100902.44;5111728;28;19923;-65
2023/10/09 08:46:44;;;;;;;;;;;;;;;17.73;34.32;100903.41;5111561;28;19923;-65
2023/10/09 08:49:14;;;;;;;;;;;;;;;17.74;34.01;100908.69;5111437;28;20022;-65
2023/10/09 08:51:48;;;;;;;;;;;;;;;17.74;34.36;100903.28;5112035;28;19960;-65
2023/10/09 08:54:16;;;;;;;;;;;;;;;17.74;34.19;100903.28;5111529;28;20436;-65
2023/10/09 08:56:50;;;;;;;;;;;;;;;17.76;34.66;100913.09;5111727;28;19946;-66
2023/10/09 08:59:19;;;;;;;;;;;;;;;17.76;34.25;100894.22;5111683;28;20406;-65
2023/10/09 09:01:51;;;;;;;;;;;;;;;17.77;34.43;100888.72;5114224;28;19971;-65
2023/10/09 09:04:35;;;;;;;;;;;;;;;17.77;34.64;100874.38;5115342;28;19924;-65
2023/10/09 09:07:04;;;;;;;;;;;;;;;17.78;34.51;100866.16;5115274;28;19924;-65
2023/10/09 09:09:34;;;;;;;;;;;;;;;17.78;34.27;100860.75;5115080;28;19928;-65
2023/10/09 09:12:02;;;;;;;;;;;;;;;17.80;34.35;100860.63;5115191;28;20371;-65
2023/10/09 09:14:37;;;;;;;;;;;;;;;17.81;34.70;100865.03;5115099;28;20288;-65
2023/10/09 09:17:10;;;;;;;;;;;;;;;17.83;34.44;100871.16;5115142;28;19923;-65
2023/10/09 09:19:39;;;;;;;;;;;;;;;17.84;34.29;100867.47;5115080;28;19924;-65
2023/10/09 09:22:12;;;;;;;;;;;;;;;17.86;34.36;100854.75;5114777;28;19955;-64
2023/10/09 09:24:46;;;;;;;;;;;;;;;17.88;34.70;100863.56;5115122;28;19923;-65
2023/10/09 09:27:18;;;;;;;;;;;;;;;17.91;34.15;100860.63;5115009;28;19924;-65
2023/10/09 09:29:53;;;;;;;;;;;;;;;17.93;34.29;100848.69;5115031;28;20310;-65
2023/10/09 09:32:29;;;;;;;;;;;;;;;17.95;34.28;100848.56;5114775;28;19939;-65
2023/10/09 09:35:00;;;;;;;;;;;;;;;17.98;34.31;100849.19;5114458;28;19930;-65
2023/10/09 09:37:33;;;;;;;;;;;;;;;18.01;34.31;100850.78;5114479;28;20000;-65
2023/10/09 09:40:14;;;;;;;;;;;;;;;18.04;34.54;100850.53;5114694;28;19924;-65
2023/10/09 09:42:44;;;;;;;;;;;;;;;18.06;34.45;100848.56;5114693;28;19924;-65
2023/10/09 09:45:13;;;;;;;;;;;;;;;18.08;34.06;100841.19;5114481;28;19923;-65
2023/10/09 09:47:51;;;;;;;;;;;;;;;18.11;34.37;100840.94;5114234;28;19924;-65
2023/10/09 09:50:24;;;;;;;;;;;;;;;18.12;34.21;100837.25;5114330;28;20440;-65
2023/10/09 09:52:55;;;;;;;;;;;;;;;18.15;34.11;100841.56;5114346;28;19931;-65
2023/10/09 09:55:30;;;;;;;;;;;;;;;18.17;34.09;100837.75;5114053;28;19923;-65
2023/10/09 09:57:59;;;;;;;;;;;;;;;18.19;34.31;100843.88;5114192;28;20384;-65
2023/10/09 10:00:30;;;;;;;;;;;;;;;18.21;34.40;100835.63;5114277;28;20371;-65
2023/10/09 10:03:02;;;;;;;;;;;;;;;18.24;34.64;100828.16;5114149;28;20380;-65
2023/10/09 10:05:31;;;;;;;;;;;;;;;18.27;34.46;100825.19;5114218;28;19963;-65
2023/10/09 10:08:01;;;;;;;;;;;;;;;18.32;34.49;100822.09;5114130;28;19927;-65
2023/10/09 10:10:38;;;;;;;;;;;;;;;18.35;34.41;100810.22;5113948;28;20022;-65
2023/10/09 10:13:14;;;;;;;;;;;;;;;18.38;34.38;100781.09;5114046;28;19942;-65
2023/10/09 10:15:59;;;;;;;;;;;;;;;18.40;34.30;100749.41;5113810;28;20378;-65
2023/10/09 10:18:32;;;;;;;;;;;;;;;18.40;34.70;100721.53;5113933;28;19924;-67
2023/10/09 10:21:16;;;;;;;;;;;;;;;18.40;34.33;100730.50;5113715;28;20510;-65
2023/10/09 10:23:48;;;;;;;;;;;;;;;18.42;34.21;100716.84;5113844;28;20014;-65
2023/10/09 10:26:25;;;;;;;;;;;;;;;18.44;34.44;100717.59;5113649;28;19924;-65
2023/10/09 10:29:22;;;;;;;;;;;;;;;18.44;34.35;100720.31;5113710;28;20026;-66
2023/10/09 10:31:55;;;;;;;;;;;;;;;18.46;34.40;100710.22;5113465;28;20415;-65
2023/10/09 10:34:24;;;;;;;;;;;;;;;18.51;34.50;100686.34;5113601;28;19977;-65
2023/10/09 10:36:58;;;;;;;;;;;;;;;18.56;34.36;100679.56;5113254;28;19924;-65
2023/10/09 10:39:45;;;;;;;;;;;;;;;18.62;34.13;100670.06;5113599;28;20006;-66
2023/10/09 10:42:33;;;;;;;;;;;;;;;18.66;34.51;100676.97;5113511;28;19931;-66
2023/10/09 10:45:15;;;;;;;;;;;;;;;18.72;34.32;100679.13;5113563;28;19924;-66
2023/10/09 10:47:47;;;;;;;;;;;;;;;18.77;34.18;100679.56;5113180;28;20006;-65
2023/10/09 10:50:35;;;;;;;;;;;;;;;18.84;34.13;100656.44;5113007;28;19924;-65
2023/10/09 10:53:13;;;;;;;;;;;;;;;18.86;34.28;100616.59;5113172;28;19977;-65
2023/10/09 10:55:56;;;;;;;;;;;;;;;18.90;33.97;100643.34;5112905;28;20372;-66
2023/10/09 10:58:34;;;;;;;;;;;;;;;18.91;34.16;100666.69;5113592;28;19977;-65
2023/10/09 11:01:15;;;;;;;;;;;;;;;18.98;34.23;100660.59;5113259;28;19924;-65
2023/10/09 11:03:56;;;;;;;;;;;;;;;19.07;33.86;100656.22;5113190;28;20044;-65
2023/10/09 11:06:37;;;;;;;;;;;;;;;19.12;33.75;100638.63;5113154;28;20022;-65
2023/10/09 11:09:21;;;;;;;;;;;;;;;19.21;33.83;100674.78;5112768;28;19923;-65
2023/10/09 11:11:55;;;;;;;;;;;;;;;19.22;33.79;100654.88;5112887;28;20283;-65
2023/10/09 11:14:23;;;;;;;;;;;;;;;19.22;33.94;100649.47;5112651;28;20023;-65
2023/10/09 11:16:57;;;;;;;;;;;;;;;19.24;34.12;100615.00;5112743;28;20334;-65
2023/10/09 11:19:32;;;;;;;;;;;;;;;19.27;33.71;100640.91;5112568;28;19924;-65
2023/10/09 11:25:00;;;;;;;;;;;;;;;19.31;34.02;100709.97;5111975;28;19989;-65
2023/10/09 11:27:32;;;;;;;;;;;;;;;19.42;33.66;100683.66;5112405;28;19968;-65
2023/10/09 11:30:25;;;;;;;;;;;;;;;19.53;33.39;100619.63;5112390;28;19980;-66
2023/10/09 11:33:04;;;;;;;;;;;;;;;19.56;33.30;100581.47;5112587;28;20010;-65
2023/10/09 11:35:34;;;;;;;;;;;;;;;19.63;33.44;100628.63;5112163;28;20314;-65
2023/10/09 11:38:20;;;;;;;;;;;;;;;19.75;33.41;100678.03;5112280;28;19946;-67
2023/10/09 11:41:05;;;;;;;;;;;;;;;19.75;33.49;100670.78;5112594;28;19931;-66
2023/10/09 11:43:57;;;;;;;;;;;;;;;19.77;33.27;100687.72;5112338;28;20331;-65
2023/10/09 11:46:36;;;;;;;;;;;;;;;19.88;33.10;100671.38;5112321;28;19924;-65
2023/10/09 11:49:25;;;;;;;;;;;;;;;20.02;32.98;100659.25;5112226;28;19923;-65
2023/10/09 11:54:39;;;;;;;;;;;;;;;19.97;33.11;100635.31;5112101;28;19931;-65
2023/10/09 11:57:07;;;;;;;;;;;;;;;19.96;33.24;100622.78;5111745;28;19924;-65
2023/10/09 11:59:38;;;;;;;;;;;;;;;20.03;33.30;100623.06;5112040;28;20305;-65
2023/10/09 12:02:11;;;;;;;;;;;;;;;20.05;32.92;100606.66;5112187;28;19931;-65
2023/10/09 12:04:41;;;;;;;;;;;;;;;20.00;33.37;100598.97;5112143;28;19930;-65
2023/10/09 12:07:13;;;;;;;;;;;;;;;19.97;33.33;100583.84;5112089;28;20439;-65
2023/10/09 12:09:41;;;;;;;;;;;;;;;19.94;33.21;100576.03;5112000;28;19934;-65
2023/10/09 12:12:09;;;;;;;;;;;;;;;19.93;33.27;100590.56;5112231;28;19924;-65
2023/10/09 12:14:42;;;;;;;;;;;;;;;19.94;33.12;100575.19;5112130;28;19971;-65
2023/10/09 12:17:10;;;;;;;;;;;;;;;19.94;33.27;100580.59;5112043;28;19976;-66
2023/10/09 12:19:40;;;;;;;;;;;;;;;19.94;33.14;100569.78;5111346;28;19924;-65
2023/10/09 12:22:10;;;;;;;;;;;;;;;19.91;33.17;100568.22;5111883;28;19924;-65
2023/10/09 12:24:43;;;;;;;;;;;;;;;19.91;33.41;100575.47;5111867;28;19924;-65
2023/10/09 12:27:11;;;;;;;;;;;;;;;19.91;33.14;100561.94;5112077;28;19931;-66
2023/10/09 12:29:44;;;;;;;;;;;;;;;19.91;33.36;100557.38;5111792;28;19923;-65
2023/10/09 12:32:19;;;;;;;;;;;;;;;19.91;33.41;100543.84;5111924;28;19963;-65
2023/10/09 12:34:50;;;;;;;;;;;;;;;19.90;33.27;100536.72;5111726;28;19924;-65
2023/10/09 12:37:21;;;;;;;;;;;;;;;19.92;33.36;100552.81;5114910;28;20014;-65
2023/10/09 12:39:49;;;;;;;;;;;;;;;19.92;33.30;100550.13;5115693;28;19975;-64
2023/10/09 12:42:17;;;;;;;;;;;;;;;19.92;33.37;100548.25;5115771;28;19974;-65
2023/10/09 12:44:46;;;;;;;;;;;;;;;19.91;33.31;100541.16;5115253;28;20333;-66
2023/10/09 12:47:14;;;;;;;;;;;;;;;19.90;33.25;100552.97;5115438;28;19924;-66
2023/10/09 12:49:45;;;;;;;;;;;;;;;19.87;33.37;100558.66;5115203;28;19924;-65
2023/10/09 12:52:16;;;;;;;;;;;;;;;19.87;33.28;100553.25;5115422;28;19924;-66
2023/10/09 12:54:46;;;;;;;;;;;;;;;19.87;33.57;100569.50;5115690;27;19955;-65
2023/10/09 12:57:14;;;;;;;;;;;;;;;19.86;33.44;100558.81;5115384;28;19928;-65
2023/10/09 12:59:45;;;;;;;;;;;;;;;19.84;33.19;100561.66;5115107;28;19946;-65
2023/10/09 13:02:27;;;;;;;;;;;;;;;19.82;33.30;100555.53;5115547;28;19967;-66
2023/10/09 13:04:59;;;;;;;;;;;;;;;19.80;33.34;100557.56;5115360;28;20318;-66
2023/10/09 13:07:27;;;;;;;;;;;;;;;19.79;33.29;100565.81;5114975;28;20376;-65
2023/10/09 13:10:09;;;;;;;;;;;;;;;19.78;33.30;100564.94;5115223;28;20409;-66
2023/10/09 13:12:40;;;;;;;;;;;;;;;19.76;33.49;100558.81;5115337;28;19928;-65
2023/10/09 13:15:09;;;;;;;;;;;;;;;19.75;33.51;100557.13;5115220;28;19924;-66
2023/10/09 13:17:37;;;;;;;;;;;;;;;19.73;33.53;100541.03;5115166;28;19951;-66
2023/10/09 13:20:12;;;;;;;;;;;;;;;19.71;33.76;100542.16;5115044;28;20357;-65
2023/10/09 13:22:41;;;;;;;;;;;;;;;19.70;33.82;100540.47;5114856;28;19924;-65
2023/10/09 13:25:16;;;;;;;;;;;;;;;19.68;33.74;100537.03;5114980;28;20380;-67
2023/10/09 13:28:03;;;;;;;;;;;;;;;19.66;33.77;100534.47;5115037;28;19924;-67
2023/10/09 13:30:39;;;;;;;;;;;;;;;19.65;33.83;100529.22;5114781;27;20093;-66
2023/10/09 13:33:16;;;;;;;;;;;;;;;19.64;33.77;100527.50;5114686;28;20018;-67
2023/10/09 13:35:50;;;;;;;;;;;;;;;19.63;33.78;100523.09;5114489;28;20288;-65
2023/10/09 13:38:17;;;;;;;;;;;;;;;19.61;33.81;100519.69;5114264;28;20329;-65
2023/10/09 13:40:46;;;;;;;;;;;;;;;19.60;33.86;100524.25;5114250;28;20025;-66
2023/10/09 13:43:16;;;;;;;;;;;;;;;19.58;34.16;100531.63;5113976;28;19931;-65
2023/10/09 13:45:49;;;;;;;;;;;;;;;19.59;33.93;100532.47;5113751;28;20425;-66
2023/10/09 13:48:20;;;;;;;;;;;;;;;19.57;34.09;100534.47;5113859;28;20273;-68
2023/10/09 13:50:51;;;;;;;;;;;;;;;19.56;34.05;100530.06;5114103;28;20320;-65
2023/10/09 13:53:21;;;;;;;;;;;;;;;19.55;34.14;100537.31;5113983;28;20432;-65
2023/10/09 13:55:49;;;;;;;;;;;;;;;19.54;34.07;100535.59;5113981;28;20296;-65
2023/10/09 13:58:20;;;;;;;;;;;;;;;19.54;34.12;100537.44;5113924;28;20270;-65
2023/10/09 14:00:53;;;;;;;;;;;;;;;19.53;34.58;100527.63;5114184;28;19924;-65
2023/10/09 14:03:23;;;;;;;;;;;;;;;19.52;34.56;100509.69;5114206;28;19930;-65
2023/10/09 14:05:54;;;;;;;;;;;;;;;19.50;34.25;100498.16;5114186;28;19963;-67
2023/10/09 14:08:23;;;;;;;;;;;;;;;19.50;34.28;100490.03;5114019;28;19967;-67
2023/10/09 14:10:51;;;;;;;;;;;;;;;19.50;34.17;100479.22;5113916;28;19924;-67
2023/10/09 14:13:25;;;;;;;;;;;;;;;19.50;34.64;100479.22;5114256;28;19924;-67
2023/10/09 14:15:55;;;;;;;;;;;;;;;19.46;34.37;100481.34;5113703;28;20010;-66